Time;durP1;ratioP1;P1;durP2;ratioP2;P2;SDS_P1;SDS_P2;PMS_P1;PMS_P2;Temp;Humidity;BMP_temperature;BMP_pressure;BME280_temperature;BME280_humidity;BME280_pressure;Samples;Min_cycle;Max_cycle;Signal;HPM_P1;HPM_P2
2023/08/16 00:00:51;;;;;;;8.98;5.80;;;17.80;99.90;;;;;;7267581;32;20140;-55
2023/08/16 00:04:52;;;;;;;11.25;5.82;;;17.70;99.90;;;;;;7259128;32;20135;-53
2023/08/16 00:08:58;;;;;;;8.02;5.35;;;17.70;99.90;;;;;;7261785;32;20104;-56
2023/08/16 00:13:02;;;;;;;11.57;6.15;;;17.70;99.90;;;;;;7268688;32;20116;-55
2023/08/16 00:17:04;;;;;;;7.45;5.70;;;17.50;99.90;;;;;;7253362;32;20222;-56
2023/08/16 00:21:06;;;;;;;10.50;6.22;;;17.50;99.90;;;;;;7266115;32;20333;-55
2023/08/16 00:25:08;;;;;;;12.05;6.75;;;17.50;99.90;;;;;;7257370;32;20534;-55
2023/08/16 00:29:10;;;;;;;8.90;5.95;;;17.40;99.90;;;;;;7261543;32;20195;-55
2023/08/16 00:33:12;;;;;;;11.82;5.47;;;17.40;99.90;;;;;;7270840;32;20696;-54
2023/08/16 00:37:13;;;;;;;11.27;6.20;;;17.40;99.90;;;;;;7274092;32;20104;-54
2023/08/16 00:41:15;;;;;;;10.38;6.72;;;17.40;99.90;;;;;;7257496;32;20121;-55
2023/08/16 00:45:17;;;;;;;8.80;6.30;;;17.40;99.90;;;;;;7273890;32;20341;-54
2023/08/16 00:49:19;;;;;;;9.65;5.57;;;17.30;99.90;;;;;;7266471;32;20151;-54
2023/08/16 00:53:22;;;;;;;9.15;5.90;;;17.30;99.90;;;;;;7274102;32;20169;-54
2023/08/16 00:57:23;;;;;;;9.95;6.90;;;17.20;99.90;;;;;;7267913;32;20108;-54
2023/08/16 01:01:26;;;;;;;8.02;6.12;;;17.20;99.90;;;;;;7269187;32;20650;-54
2023/08/16 01:05:28;;;;;;;7.18;6.05;;;17.20;99.90;;;;;;7275387;32;20485;-54
2023/08/16 01:09:30;;;;;;;7.12;6.43;;;17.20;99.90;;;;;;7260938;32;20115;-55
2023/08/16 01:13:48;;;;;;;8.43;6.35;;;17.10;99.90;;;;;;7259459;32;20124;-54
2023/08/16 01:17:53;;;;;;;7.45;5.95;;;17.10;99.90;;;;;;7271805;32;20107;-55
2023/08/16 01:22:14;;;;;;;9.35;6.12;;;17.10;99.90;;;;;;7276433;32;20435;-55
2023/08/16 01:26:35;;;;;;;7.43;6.72;;;17.00;99.90;;;;;;7267853;32;20285;-54
2023/08/16 01:30:40;;;;;;;12.23;6.45;;;16.90;99.90;;;;;;7274618;32;20138;-55
2023/08/16 01:34:41;;;;;;;8.15;6.15;;;16.90;99.90;;;;;;7276596;32;20096;-55
2023/08/16 01:38:43;;;;;;;8.52;6.37;;;16.90;99.90;;;;;;7273930;32;20135;-55
2023/08/16 01:42:48;;;;;;;9.43;6.20;;;16.90;99.90;;;;;;7268211;32;20127;-54
2023/08/16 01:46:51;;;;;;;12.88;6.40;;;16.90;99.90;;;;;;7266937;32;20122;-55
2023/08/16 01:50:53;;;;;;;7.25;6.55;;;16.80;99.90;;;;;;7262749;32;20310;-55
2023/08/16 01:54:55;;;;;;;7.72;5.95;;;16.80;99.90;;;;;;7277543;32;20586;-55
2023/08/16 01:58:57;;;;;;;5.80;4.93;;;16.70;99.90;;;;;;7273411;32;20120;-55
2023/08/16 02:02:59;;;;;;;13.70;6.47;;;16.70;99.90;;;;;;7272893;32;20506;-54
2023/08/16 02:07:00;;;;;;;8.82;6.60;;;16.80;99.90;;;;;;7263327;32;20118;-55
2023/08/16 02:11:02;;;;;;;11.10;7.28;;;16.70;99.90;;;;;;7265841;32;20119;-55
2023/08/16 02:15:04;;;;;;;8.85;7.30;;;16.60;99.90;;;;;;7277364;32;20105;-55
2023/08/16 02:19:06;;;;;;;14.80;6.85;;;16.60;99.90;;;;;;7259231;32;20323;-55
2023/08/16 02:23:08;;;;;;;14.25;7.93;;;16.70;99.90;;;;;;7272590;32;20108;-55
2023/08/16 02:27:11;;;;;;;12.75;8.25;;;16.60;99.90;;;;;;7275456;32;20105;-54
2023/08/16 02:31:12;;;;;;;10.15;7.68;;;16.60;99.90;;;;;;7267528;32;20100;-54
2023/08/16 02:35:14;;;;;;;9.98;7.45;;;16.60;99.90;;;;;;7267687;32;20525;-55
2023/08/16 02:39:17;;;;;;;9.85;7.43;;;16.60;99.90;;;;;;7265088;32;20199;-55
2023/08/16 02:43:19;;;;;;;9.60;8.32;;;16.60;99.90;;;;;;7271543;32;20100;-54
2023/08/16 02:47:21;;;;;;;15.43;7.55;;;16.60;99.90;;;;;;7275975;32;20554;-54
2023/08/16 02:51:23;;;;;;;8.32;7.53;;;16.60;99.90;;;;;;7262685;32;20093;-54
2023/08/16 02:55:25;;;;;;;12.63;7.70;;;16.60;99.90;;;;;;7269813;32;20261;-55
2023/08/16 02:59:27;;;;;;;11.90;7.18;;;16.60;99.90;;;;;;7260504;32;20101;-54
2023/08/16 03:03:28;;;;;;;10.55;7.90;;;16.60;99.90;;;;;;7265757;32;20214;-54
2023/08/16 03:07:30;;;;;;;11.05;7.90;;;16.70;99.90;;;;;;7273050;32;20092;-54
2023/08/16 03:11:32;;;;;;;15.57;10.13;;;16.70;99.90;;;;;;7256855;32;20281;-54
2023/08/16 03:15:34;;;;;;;14.00;10.60;;;16.90;99.90;;;;;;7260375;32;20124;-55
2023/08/16 03:19:36;;;;;;;14.02;10.20;;;16.90;99.90;;;;;;7275855;32;20133;-55
2023/08/16 03:23:38;;;;;;;14.40;10.77;;;17.10;99.90;;;;;;7265551;32;20162;-55
2023/08/16 03:27:40;;;;;;;12.20;10.80;;;17.10;99.90;;;;;;7286754;32;20096;-55
2023/08/16 03:31:42;;;;;;;13.18;10.20;;;17.20;99.90;;;;;;7265186;32;20526;-55
2023/08/16 03:35:43;;;;;;;15.77;11.43;;;17.30;99.90;;;;;;7273902;32;20108;-55
2023/08/16 03:39:45;;;;;;;15.00;9.93;;;17.40;99.90;;;;;;7267745;32;20203;-55
2023/08/16 03:43:47;;;;;;;12.95;9.55;;;17.40;99.90;;;;;;7270231;32;20255;-56
2023/08/16 03:47:48;;;;;;;12.70;8.75;;;17.50;99.90;;;;;;7265636;32;20104;-55
2023/08/16 03:51:51;;;;;;;15.77;9.30;;;17.50;99.90;;;;;;7269549;32;20157;-56
2023/08/16 03:55:57;;;;;;;12.43;7.82;;;17.60;99.90;;;;;;7265285;32;20105;-55
2023/08/16 03:59:59;;;;;;;9.65;7.12;;;17.60;99.90;;;;;;7269462;32;20184;-55
2023/08/16 04:04:01;;;;;;;9.13;6.35;;;17.60;99.90;;;;;;7256415;32;20195;-55
2023/08/16 04:08:03;;;;;;;12.50;6.70;;;17.70;99.90;;;;;;7273076;32;20101;-55
2023/08/16 04:12:05;;;;;;;8.18;5.90;;;17.70;99.90;;;;;;7253826;32;20100;-55
2023/08/16 04:16:07;;;;;;;14.15;7.30;;;17.80;99.90;;;;;;7267305;32;20199;-55
2023/08/16 04:20:10;;;;;;;10.07;6.10;;;18.00;99.90;;;;;;7260227;32;20197;-55
2023/08/16 04:24:12;;;;;;;9.57;5.70;;;18.00;99.90;;;;;;7275125;32;20192;-56
2023/08/16 04:28:13;;;;;;;7.55;5.30;;;18.10;99.90;;;;;;7264356;32;20100;-55
2023/08/16 04:32:15;;;;;;;12.43;5.90;;;18.00;99.90;;;;;;7272265;32;20313;-56
2023/08/16 04:36:17;;;;;;;9.00;5.75;;;18.00;99.90;;;;;;7278236;32;20187;-55
2023/08/16 04:40:19;;;;;;;8.48;4.70;;;18.10;99.90;;;;;;7277466;32;20463;-55
2023/08/16 04:44:21;;;;;;;7.90;4.80;;;18.10;99.90;;;;;;7276340;32;20489;-55
2023/08/16 04:48:22;;;;;;;10.45;5.18;;;18.00;99.90;;;;;;7271602;32;20220;-56
2023/08/16 04:52:25;;;;;;;7.97;4.25;;;18.00;99.90;;;;;;7263086;32;20161;-58
2023/08/16 04:56:26;;;;;;;6.22;4.20;;;18.00;99.90;;;;;;7265344;32;20115;-56
2023/08/16 05:00:28;;;;;;;9.10;4.65;;;18.00;99.90;;;;;;7259556;32;20195;-56
2023/08/16 05:04:30;;;;;;;6.20;4.45;;;17.90;99.90;;;;;;7245767;32;20175;-56
2023/08/16 05:08:32;;;;;;;7.68;4.80;;;17.90;99.90;;;;;;7271774;32;20154;-56
2023/08/16 05:12:33;;;;;;;11.12;4.50;;;17.90;99.90;;;;;;7272801;32;20104;-56
2023/08/16 05:16:35;;;;;;;9.20;4.37;;;18.00;99.90;;;;;;7270529;32;20725;-56
2023/08/16 05:20:37;;;;;;;8.27;4.97;;;18.00;99.90;;;;;;7277515;32;20658;-56
2023/08/16 05:24:39;;;;;;;9.45;4.95;;;18.00;99.90;;;;;;7265795;32;20105;-56
2023/08/16 05:28:41;;;;;;;4.53;3.87;;;18.00;99.90;;;;;;7270855;32;20340;-56
2023/08/16 05:32:43;;;;;;;11.43;4.82;;;18.00;99.90;;;;;;7260589;32;20494;-56
2023/08/16 05:36:46;;;;;;;8.70;5.12;;;18.10;99.90;;;;;;7270572;32;20131;-56
2023/08/16 05:40:48;;;;;;;5.43;4.18;;;18.20;99.90;;;;;;7270773;32;20136;-56
2023/08/16 05:44:50;;;;;;;11.30;5.65;;;18.30;99.90;;;;;;7275414;32;20105;-56
2023/08/16 05:48:51;;;;;;;13.25;8.32;;;18.40;99.90;;;;;;7270114;32;20125;-56
2023/08/16 05:52:53;;;;;;;12.35;7.60;;;18.60;99.90;;;;;;7267753;32;20231;-56
2023/08/16 05:56:55;;;;;;;8.15;4.90;;;18.70;99.90;;;;;;7269232;32;20096;-56
2023/08/16 06:00:57;;;;;;;8.88;4.82;;;18.70;99.90;;;;;;7271656;32;20192;-56
2023/08/16 06:04:59;;;;;;;22.33;15.60;;;18.80;99.90;;;;;;7260775;32;20127;-55
2023/08/16 06:09:01;;;;;;;10.98;5.80;;;18.80;99.90;;;;;;7272566;32;20104;-56
2023/08/16 06:13:03;;;;;;;7.80;4.97;;;18.90;99.90;;;;;;7269806;32;20195;-56
2023/08/16 06:17:04;;;;;;;10.93;5.93;;;18.90;99.90;;;;;;7262414;32;20124;-56
2023/08/16 06:21:06;;;;;;;11.20;5.72;;;18.90;99.90;;;;;;7268380;32;20603;-57
2023/08/16 06:25:09;;;;;;;11.55;7.62;;;19.00;99.90;;;;;;7271628;32;20306;-55
2023/08/16 06:29:11;;;;;;;9.55;7.12;;;19.00;99.90;;;;;;7269754;32;20203;-55
2023/08/16 06:33:13;;;;;;;10.00;7.15;;;19.00;99.90;;;;;;7272085;32;20454;-56
2023/08/16 06:37:15;;;;;;;12.18;7.55;;;19.10;99.90;;;;;;7264034;32;20702;-56
2023/08/16 06:41:16;;;;;;;12.45;8.15;;;19.20;99.90;;;;;;7269261;32;20124;-55
2023/08/16 06:45:18;;;;;;;10.45;7.93;;;19.40;99.90;;;;;;7271028;32;20294;-55
2023/08/16 06:49:21;;;;;;;12.27;9.05;;;19.40;99.90;;;;;;7273014;32;20511;-55
2023/08/16 06:53:23;;;;;;;12.18;9.25;;;19.40;99.90;;;;;;7270081;32;20096;-56
2023/08/16 06:57:24;;;;;;;14.85;11.48;;;19.40;99.90;;;;;;7265945;32;20168;-55
2023/08/16 07:01:27;;;;;;;15.60;11.27;;;19.40;99.90;;;;;;7279649;32;20225;-56
2023/08/16 07:05:29;;;;;;;17.87;11.25;;;19.40;99.90;;;;;;7255326;32;20202;-55
2023/08/16 07:09:31;;;;;;;13.05;11.68;;;19.60;99.90;;;;;;7271657;32;20123;-55
2023/08/16 07:13:33;;;;;;;14.02;12.55;;;19.80;99.90;;;;;;7270572;32;20238;-55
2023/08/16 07:17:34;;;;;;;14.02;10.95;;;19.80;99.90;;;;;;7267045;32;20528;-55
2023/08/16 07:21:36;;;;;;;12.05;10.45;;;20.00;99.90;;;;;;7267191;32;20179;-55
2023/08/16 07:25:38;;;;;;;13.27;9.82;;;20.30;99.90;;;;;;7269194;32;20263;-55
2023/08/16 07:29:40;;;;;;;10.68;9.15;;;20.20;99.90;;;;;;7269738;32;20136;-57
2023/08/16 07:33:42;;;;;;;13.20;8.65;;;20.20;99.90;;;;;;7274656;32;20126;-56
2023/08/16 07:37:44;;;;;;;15.23;10.32;;;20.20;99.90;;;;;;7274762;32;20097;-56
2023/08/16 07:41:47;;;;;;;14.73;9.30;;;20.20;99.90;;;;;;7273572;32;20171;-56
2023/08/16 07:45:53;;;;;;;15.43;10.57;;;20.20;99.90;;;;;;7275539;32;20175;-56
2023/08/16 07:49:55;;;;;;;15.93;9.38;;;20.40;99.90;;;;;;7273564;32;20273;-57
2023/08/16 07:53:57;;;;;;;12.95;9.57;;;20.50;99.90;;;;;;7273425;32;20393;-56
2023/08/16 07:57:59;;;;;;;11.93;9.57;;;20.20;99.90;;;;;;7275145;32;20100;-56
2023/08/16 08:02:01;;;;;;;14.18;10.32;;;20.00;99.90;;;;;;7277209;32;20157;-57
2023/08/16 08:06:03;;;;;;;13.10;9.48;;;20.20;99.90;;;;;;7281595;32;20104;-56
2023/08/16 08:10:06;;;;;;;12.90;11.00;;;20.20;99.90;;;;;;7276264;32;20109;-56
2023/08/16 08:14:07;;;;;;;17.15;12.15;;;20.30;99.90;;;;;;7271128;32;20100;-57
2023/08/16 08:18:09;;;;;;;15.52;11.88;;;20.30;99.90;;;;;;7281758;32;20286;-56
2023/08/16 08:22:11;;;;;;;17.62;12.43;;;20.20;99.90;;;;;;7276562;32;20128;-56
2023/08/16 08:26:13;;;;;;;17.48;14.55;;;20.10;99.90;;;;;;7256312;32;20109;-55
2023/08/16 08:30:16;;;;;;;17.10;14.48;;;20.20;99.90;;;;;;7278824;32;20123;-56
2023/08/16 08:34:19;;;;;;;16.33;13.82;;;20.20;99.90;;;;;;7275001;32;20139;-55
2023/08/16 08:38:22;;;;;;;18.17;12.57;;;20.40;99.90;;;;;;7276249;32;20276;-55
2023/08/16 08:42:25;;;;;;;15.00;13.38;;;20.40;99.90;;;;;;7263350;32;20622;-54
2023/08/16 08:46:30;;;;;;;20.02;14.35;;;20.40;99.90;;;;;;7275861;32;20446;-55
2023/08/16 08:50:32;;;;;;;18.52;15.32;;;20.30;99.90;;;;;;7272539;32;20210;-55
2023/08/16 08:54:34;;;;;;;17.92;15.00;;;20.40;99.90;;;;;;7278906;32;20179;-55
2023/08/16 08:58:40;;;;;;;19.45;16.58;;;20.60;99.90;;;;;;7274958;32;20849;-56
2023/08/16 09:02:43;;;;;;;21.95;16.92;;;20.60;99.90;;;;;;7275461;32;20105;-56
2023/08/16 09:06:45;;;;;;;20.48;16.02;;;20.50;99.90;;;;;;7263577;32;20104;-56
2023/08/16 09:10:48;;;;;;;19.23;14.18;;;20.70;99.90;;;;;;7277190;32;20530;-56
2023/08/16 09:14:50;;;;;;;16.95;11.95;;;21.70;99.90;;;;;;7273761;32;20104;-56
2023/08/16 09:18:52;;;;;;;16.87;11.70;;;23.00;99.90;;;;;;7279627;32;20109;-56
2023/08/16 09:22:53;;;;;;;19.30;12.27;;;23.70;99.90;;;;;;7273126;32;20629;-56
2023/08/16 09:27:00;;;;;;;20.17;13.55;;;23.50;99.90;;;;;;7272445;32;20155;-55
2023/08/16 09:31:06;;;;;;;16.52;11.52;;;23.00;99.90;;;;;;7276706;32;20396;-56
2023/08/16 09:35:16;;;;;;;17.70;11.10;;;22.90;99.90;;;;;;7265059;32;20146;-56
2023/08/16 09:39:18;;;;;;;17.85;11.95;;;22.80;99.90;;;;;;7275731;32;20264;-55
2023/08/16 09:43:20;;;;;;;17.02;11.50;;;22.50;99.90;;;;;;7268632;32;20946;-55
2023/08/16 09:47:22;;;;;;;16.15;9.70;;;22.50;99.90;;;;;;7268475;32;20743;-55
2023/08/16 09:51:45;;;;;;;15.10;10.73;;;22.30;99.90;;;;;;7260746;32;20149;-55
2023/08/16 09:55:52;;;;;;;13.73;10.10;;;22.10;99.90;;;;;;7277100;32;20209;-55
2023/08/16 09:59:55;;;;;;;15.68;10.68;;;22.20;99.90;;;;;;7272737;32;20096;-55
2023/08/16 10:03:58;;;;;;;16.85;10.55;;;22.10;99.90;;;;;;7274613;32;20493;-55
2023/08/16 10:08:20;;;;;;;14.25;9.32;;;21.80;99.90;;;;;;7272674;32;20205;-55
2023/08/16 10:12:23;;;;;;;14.10;9.10;;;21.60;99.90;;;;;;7260905;32;20136;-55
2023/08/16 10:16:27;;;;;;;15.65;9.52;;;21.60;99.90;;;;;;7272255;32;20554;-55
2023/08/16 10:20:36;;;;;;;14.00;9.68;;;21.60;99.90;;;;;;7270014;32;20124;-56
2023/08/16 10:24:39;;;;;;;16.33;10.75;;;21.40;99.90;;;;;;7274269;32;20124;-57
2023/08/16 10:28:51;;;;;;;18.48;10.45;;;21.30;99.90;;;;;;7274074;32;20136;-56
2023/08/16 10:32:59;;;;;;;15.48;9.68;;;21.20;99.90;;;;;;7280028;32;20210;-56
2023/08/16 10:37:01;;;;;;;17.27;10.95;;;21.30;99.90;;;;;;7268850;32;20187;-56
2023/08/16 10:41:13;;;;;;;13.75;10.32;;;21.30;99.90;;;;;;7269691;32;20108;-56
2023/08/16 10:45:34;;;;;;;15.48;12.07;;;21.30;99.90;;;;;;7271916;32;20499;-56
2023/08/16 10:49:40;;;;;;;19.70;14.45;;;21.20;99.90;;;;;;7263894;32;20127;-56
2023/08/16 10:53:42;;;;;;;20.05;13.52;;;21.00;99.90;;;;;;7274311;32;20118;-57
2023/08/16 10:57:54;;;;;;;17.65;13.93;;;21.00;99.90;;;;;;7271317;32;20250;-56
2023/08/16 11:01:55;;;;;;;18.45;15.57;;;21.00;99.90;;;;;;7269443;32;20101;-57
2023/08/16 11:06:02;;;;;;;21.67;16.17;;;20.90;99.90;;;;;;7276209;32;20104;-57
2023/08/16 11:10:04;;;;;;;20.65;16.80;;;21.00;99.90;;;;;;7270003;32;20166;-56
2023/08/16 11:14:06;;;;;;;21.80;18.33;;;21.00;99.90;;;;;;7269805;32;20217;-56
2023/08/16 11:18:08;;;;;;;19.85;17.48;;;21.00;99.90;;;;;;7268964;32;20126;-57
2023/08/16 11:22:12;;;;;;;23.45;18.98;;;21.10;99.90;;;;;;7270300;32;20100;-56
2023/08/16 11:26:14;;;;;;;22.17;19.83;;;21.00;99.90;;;;;;7270851;32;20269;-56
2023/08/16 11:30:17;;;;;;;19.80;17.45;;;20.90;99.90;;;;;;7268301;32;24155;-57
2023/08/16 11:34:19;;;;;;;23.70;20.08;;;20.90;99.90;;;;;;7265217;32;20342;-57
2023/08/16 11:38:23;;;;;;;24.27;21.37;;;21.00;99.90;;;;;;7265997;32;20124;-55
2023/08/16 11:42:27;;;;;;;27.75;22.65;;;20.90;99.90;;;;;;7265244;32;20501;-56
2023/08/16 11:46:42;;;;;;;31.90;21.73;;;20.90;99.90;;;;;;7272405;32;20234;-57
2023/08/16 11:50:44;;;;;;;28.50;23.38;;;21.00;99.90;;;;;;7270090;32;20936;-56
2023/08/16 11:54:46;;;;;;;29.90;23.30;;;21.00;99.90;;;;;;7274191;32;20230;-56
2023/08/16 11:58:48;;;;;;;25.05;22.45;;;21.00;99.90;;;;;;7264144;32;20100;-57
2023/08/16 12:02:50;;;;;;;28.70;20.60;;;21.00;99.90;;;;;;7271372;32;20231;-56
2023/08/16 12:06:52;;;;;;;23.85;18.23;;;21.30;99.90;;;;;;7272796;32;20158;-56
2023/08/16 12:10:54;;;;;;;18.87;16.85;;;21.60;99.90;;;;;;7261690;32;20428;-57
2023/08/16 12:14:55;;;;;;;20.90;17.90;;;22.00;99.90;;;;;;7270061;32;20270;-57
2023/08/16 12:19:01;;;;;;;21.58;18.45;;;22.00;99.90;;;;;;7265517;32;20869;-57
2023/08/16 12:23:03;;;;;;;22.13;19.33;;;22.30;99.90;;;;;;7259893;32;20275;-56
2023/08/16 12:27:05;;;;;;;22.73;17.80;;;22.10;99.90;;;;;;7268789;32;20142;-56
2023/08/16 12:31:06;;;;;;;20.02;16.40;;;22.20;99.90;;;;;;7267693;32;20299;-56
2023/08/16 12:35:08;;;;;;;22.08;17.42;;;22.30;99.90;;;;;;7272395;32;20608;-56
2023/08/16 12:39:10;;;;;;;27.83;17.40;;;22.20;99.90;;;;;;7267027;32;20295;-56
2023/08/16 12:43:12;;;;;;;27.92;23.60;;;22.20;99.90;;;;;;7267000;32;20521;-57
2023/08/16 12:47:14;;;;;;;16.73;13.50;;;22.20;99.90;;;;;;7267562;32;20183;-56
2023/08/16 12:51:15;;;;;;;18.98;13.85;;;22.40;99.90;;;;;;7270335;32;20167;-56
2023/08/16 12:55:18;;;;;;;21.83;15.48;;;22.50;99.90;;;;;;7270752;32;20259;-56
2023/08/16 12:59:21;;;;;;;20.75;14.70;;;22.80;99.90;;;;;;7275131;32;20191;-57
2023/08/16 13:03:31;;;;;;;22.13;16.08;;;23.00;99.90;;;;;;7273744;32;20119;-57
2023/08/16 13:07:36;;;;;;;28.75;16.60;;;22.80;99.90;;;;;;7272120;32;20115;-56
2023/08/16 13:11:51;;;;;;;25.88;16.15;;;22.50;99.90;;;;;;7270707;32;20166;-54
2023/08/16 13:15:57;;;;;;;21.15;16.48;;;22.70;99.90;;;;;;7270818;32;20231;-56
2023/08/16 13:20:04;;;;;;;21.48;16.30;;;22.50;99.90;;;;;;7269281;32;20096;-56
2023/08/16 13:24:11;;;;;;;23.10;16.85;;;22.40;99.90;;;;;;7263211;32;20365;-57
2023/08/16 13:28:33;;;;;;;20.10;15.25;;;22.30;99.90;;;;;;7269706;32;20854;-55
2023/08/16 13:32:37;;;;;;;18.45;14.40;;;22.20;99.90;;;;;;7272635;32;20225;-56
2023/08/16 13:36:44;;;;;;;22.92;14.43;;;22.60;99.90;;;;;;7273875;32;20125;-56
2023/08/16 13:40:57;;;;;;;17.52;14.85;;;23.10;99.90;;;;;;7270481;32;20100;-57
2023/08/16 13:45:12;;;;;;;20.30;13.62;;;23.50;99.90;;;;;;7269131;32;20100;-56
2023/08/16 13:49:19;;;;;;;20.02;15.38;;;23.30;99.90;;;;;;7273723;32;20198;-55
2023/08/16 13:53:20;;;;;;;14.87;12.82;;;23.10;99.90;;;;;;7268573;32;21996;-55
2023/08/16 13:57:22;;;;;;;17.02;12.52;;;23.50;99.90;;;;;;7266452;32;20199;-56
2023/08/16 14:01:24;;;;;;;13.70;11.63;;;23.80;99.90;;;;;;7272938;32;20487;-56
2023/08/16 14:05:26;;;;;;;15.90;12.65;;;23.70;99.90;;;;;;7266362;32;20134;-56
2023/08/16 14:09:28;;;;;;;15.48;10.20;;;23.80;99.90;;;;;;7274641;32;20123;-54
2023/08/16 14:13:29;;;;;;;17.90;13.27;;;23.90;99.90;;;;;;7270871;32;20101;-53
2023/08/16 14:17:31;;;;;;;15.45;11.63;;;23.80;99.90;;;;;;7270449;32;20119;-54
2023/08/16 14:21:33;;;;;;;16.10;12.10;;;24.00;99.90;;;;;;7265713;32;20716;-54
2023/08/16 14:25:35;;;;;;;12.37;9.88;;;24.00;99.90;;;;;;7274557;32;20458;-55
2023/08/16 14:29:37;;;;;;;15.18;11.10;;;24.10;99.90;;;;;;7275716;32;20183;-55
2023/08/16 14:33:38;;;;;;;16.98;9.88;;;24.00;99.90;;;;;;7269494;32;20105;-54
2023/08/16 14:37:41;;;;;;;13.43;7.90;;;23.80;99.90;;;;;;7266650;32;20197;-54
2023/08/16 14:41:43;;;;;;;14.43;9.07;;;23.90;99.90;;;;;;7267207;32;20105;-55
2023/08/16 14:45:44;;;;;;;14.35;9.82;;;23.60;99.90;;;;;;7268012;32;20100;-55
2023/08/16 14:49:46;;;;;;;12.43;10.43;;;23.30;99.90;;;;;;7274347;32;20104;-54
2023/08/16 14:53:48;;;;;;;15.40;10.43;;;23.00;99.90;;;;;;7268232;32;20179;-54
2023/08/16 14:58:01;;;;;;;13.85;9.90;;;22.90;99.90;;;;;;7267646;32;21033;-54
2023/08/16 15:02:03;;;;;;;15.48;8.95;;;22.90;99.90;;;;;;7271027;32;20189;-54
2023/08/16 15:06:06;;;;;;;9.90;7.00;;;22.90;99.90;;;;;;7269468;32;20105;-54
2023/08/16 15:10:08;;;;;;;12.20;6.93;;;23.10;99.90;;;;;;7265140;32;20265;-56
2023/08/16 15:14:10;;;;;;;8.85;7.30;;;23.40;99.90;;;;;;7271793;32;20260;-56
2023/08/16 15:18:12;;;;;;;7.53;5.65;;;23.30;99.90;;;;;;7270722;32;20104;-57
2023/08/16 15:22:14;;;;;;;8.90;6.75;;;23.50;99.90;;;;;;7271714;32;20104;-55
2023/08/16 15:26:16;;;;;;;12.82;7.00;;;23.60;99.90;;;;;;7260634;32;20108;-55
2023/08/16 15:30:18;;;;;;;8.50;6.00;;;23.50;99.90;;;;;;7268502;32;20486;-55
2023/08/16 15:34:20;;;;;;;9.80;7.22;;;23.80;99.90;;;;;;7271838;32;20147;-55
2023/08/16 15:38:46;;;;;;;10.50;6.07;;;23.80;99.90;;;;;;7267206;32;20128;-56
2023/08/16 15:42:52;;;;;;;7.10;5.75;;;23.60;99.90;;;;;;7269043;32;20227;-57
2023/08/16 15:46:54;;;;;;;7.57;5.25;;;23.80;99.90;;;;;;7268396;32;20177;-56
2023/08/16 15:50:56;;;;;;;10.82;6.30;;;23.70;99.90;;;;;;7266812;32;20120;-56
2023/08/16 15:54:58;;;;;;;9.60;6.10;;;23.50;99.90;;;;;;7266311;32;20752;-55
2023/08/16 15:59:00;;;;;;;7.60;5.90;;;23.30;99.90;;;;;;7267285;32;20539;-55
2023/08/16 16:03:06;;;;;;;9.75;5.85;;;23.10;99.90;;;;;;7267514;32;20108;-57
2023/08/16 16:07:08;;;;;;;7.50;5.78;;;23.20;99.90;;;;;;7265027;32;20100;-54
2023/08/16 16:11:10;;;;;;;8.27;5.53;;;23.00;99.90;;;;;;7270644;32;20157;-58
2023/08/16 16:15:11;;;;;;;9.30;5.72;;;22.90;99.90;;;;;;7264905;32;20214;-57
2023/08/16 16:19:13;;;;;;;8.35;5.05;;;22.80;99.90;;;;;;7273156;32;20131;-56
2023/08/16 16:23:15;;;;;;;9.18;5.00;;;22.70;99.90;;;;;;7272908;32;20154;-56
2023/08/16 16:27:17;;;;;;;10.52;5.45;;;22.50;99.90;;;;;;7269199;32;20179;-56
2023/08/16 16:31:20;;;;;;;7.03;5.03;;;22.40;99.90;;;;;;7285774;32;20423;-56
2023/08/16 16:35:24;;;;;;;7.35;4.35;;;22.60;99.90;;;;;;7272202;32;20260;-57
2023/08/16 16:39:26;;;;;;;4.87;4.05;;;22.70;99.90;;;;;;7276016;32;20729;-55
2023/08/16 16:43:28;;;;;;;7.78;4.20;;;22.50;99.90;;;;;;7275061;32;20582;-56
2023/08/16 16:47:30;;;;;;;9.75;4.43;;;22.30;99.90;;;;;;7271342;32;20530;-56
2023/08/16 16:51:31;;;;;;;8.93;4.28;;;22.40;99.90;;;;;;7271023;32;20112;-55
2023/08/16 16:55:34;;;;;;;8.05;3.90;;;22.30;99.90;;;;;;7269133;32;20231;-56
2023/08/16 16:59:36;;;;;;;6.80;3.55;;;22.30;99.90;;;;;;7271278;32;20187;-57
2023/08/16 17:03:39;;;;;;;7.55;3.42;;;22.10;99.90;;;;;;7273824;32;20158;-55
2023/08/16 17:07:41;;;;;;;5.35;3.20;;;22.10;99.90;;;;;;7281742;32;20198;-55
2023/08/16 17:11:42;;;;;;;3.95;3.12;;;22.00;99.90;;;;;;7274006;32;20135;-56
2023/08/16 17:15:44;;;;;;;5.85;3.55;;;22.00;99.90;;;;;;7277673;32;20157;-56
2023/08/16 17:19:46;;;;;;;6.37;3.40;;;22.00;99.90;;;;;;7280561;32;20127;-56
2023/08/16 17:23:48;;;;;;;8.70;3.28;;;22.00;99.90;;;;;;7277691;32;20235;-57
2023/08/16 17:27:49;;;;;;;5.57;3.67;;;22.00;99.90;;;;;;7267986;32;20475;-57
2023/08/16 17:31:52;;;;;;;4.47;3.10;;;22.00;99.90;;;;;;7270078;32;20778;-57
2023/08/16 17:35:55;;;;;;;7.25;2.60;;;21.90;99.90;;;;;;7275905;32;20779;-57
2023/08/16 17:39:57;;;;;;;6.20;3.15;;;21.70;99.90;;;;;;7269701;32;20114;-57
2023/08/16 17:43:58;;;;;;;5.62;3.12;;;21.70;99.90;;;;;;7271033;32;20158;-56
2023/08/16 17:48:00;;;;;;;7.60;3.47;;;21.60;99.90;;;;;;7267366;32;20112;-56
2023/08/16 17:52:04;;;;;;;4.87;3.17;;;21.50;99.90;;;;;;7270239;32;20184;-56
2023/08/16 17:56:05;;;;;;;7.43;3.10;;;21.30;99.90;;;;;;7268934;32;20165;-58
2023/08/16 18:00:09;;;;;;;5.70;2.75;;;21.30;99.90;;;;;;7265392;32;20757;-57
2023/08/16 18:04:11;;;;;;;4.78;2.90;;;21.30;99.90;;;;;;7276616;32;20727;-57
2023/08/16 18:08:12;;;;;;;5.35;3.25;;;21.30;99.90;;;;;;7274764;32;20223;-58
2023/08/16 18:12:14;;;;;;;5.03;3.20;;;21.30;99.90;;;;;;7269613;32;20111;-55
2023/08/16 18:16:16;;;;;;;6.03;3.12;;;21.20;99.90;;;;;;7266483;32;20159;-56
2023/08/16 18:20:18;;;;;;;4.22;2.42;;;21.20;99.90;;;;;;7270814;32;20131;-56
2023/08/16 18:24:20;;;;;;;6.00;2.87;;;21.20;99.90;;;;;;7270527;32;20127;-56
2023/08/16 18:28:22;;;;;;;6.62;3.10;;;21.10;99.90;;;;;;7281484;32;20301;-56
2023/08/16 18:32:23;;;;;;;5.53;3.35;;;20.90;99.90;;;;;;7269406;32;20508;-57
2023/08/16 18:36:25;;;;;;;6.00;3.10;;;20.90;99.90;;;;;;7271453;32;20608;-56
2023/08/16 18:40:27;;;;;;;5.85;3.17;;;20.80;99.90;;;;;;7274141;32;20108;-57
2023/08/16 18:44:28;;;;;;;5.47;3.40;;;20.80;99.90;;;;;;7267349;32;20120;-56
2023/08/16 18:48:30;;;;;;;5.75;3.12;;;20.70;99.90;;;;;;7272298;32;20132;-56
2023/08/16 18:52:32;;;;;;;4.97;2.78;;;20.70;99.90;;;;;;7279374;32;20616;-57
2023/08/16 18:56:34;;;;;;;6.05;3.15;;;20.70;99.90;;;;;;7267499;32;20116;-56
2023/08/16 19:00:39;;;;;;;5.60;3.60;;;20.70;99.90;;;;;;7264923;32;20230;-56
2023/08/16 19:04:41;;;;;;;6.97;4.15;;;20.60;99.90;;;;;;7265822;32;20134;-56
2023/08/16 19:08:44;;;;;;;7.15;3.42;;;20.50;99.90;;;;;;7269801;32;20512;-56
2023/08/16 19:12:46;;;;;;;6.53;3.20;;;20.50;99.90;;;;;;7276986;32;20124;-57
2023/08/16 19:16:48;;;;;;;4.18;2.80;;;20.50;99.90;;;;;;7264430;32;20222;-56
2023/08/16 19:20:49;;;;;;;5.87;3.15;;;20.40;99.90;;;;;;7267311;32;20162;-56
2023/08/16 19:24:51;;;;;;;7.68;3.47;;;20.50;99.90;;;;;;7268230;32;20258;-56
2023/08/16 19:28:53;;;;;;;6.72;3.08;;;20.50;99.90;;;;;;7271027;32;20195;-56
2023/08/16 19:32:55;;;;;;;7.90;3.20;;;20.40;99.90;;;;;;7267070;32;20485;-56
2023/08/16 19:36:56;;;;;;;5.70;2.72;;;20.40;99.90;;;;;;7270245;32;20116;-56
2023/08/16 19:40:58;;;;;;;5.57;3.35;;;20.30;99.90;;;;;;7269506;32;20104;-56
2023/08/16 19:45:00;;;;;;;5.05;3.20;;;20.40;99.90;;;;;;7270968;32;20815;-55
2023/08/16 19:49:02;;;;;;;3.75;3.35;;;20.30;99.90;;;;;;7266357;32;20266;-56
2023/08/16 19:53:05;;;;;;;4.70;3.12;;;20.30;99.90;;;;;;7273580;32;20132;-55
2023/08/16 19:57:06;;;;;;;7.43;3.30;;;20.30;99.90;;;;;;7274701;32;20282;-55
2023/08/16 20:01:08;;;;;;;5.47;3.20;;;20.20;99.90;;;;;;7281068;32;20124;-55
2023/08/16 20:05:10;;;;;;;7.05;3.72;;;20.20;99.90;;;;;;7278359;32;20550;-55
2023/08/16 20:09:12;;;;;;;7.70;3.67;;;20.20;99.90;;;;;;7277260;32;20130;-55
2023/08/16 20:13:14;;;;;;;4.45;3.53;;;20.10;99.90;;;;;;7275394;32;20100;-55
2023/08/16 20:17:16;;;;;;;7.25;3.47;;;20.00;99.90;;;;;;7274809;32;20175;-55
2023/08/16 20:21:17;;;;;;;4.12;3.25;;;20.00;99.90;;;;;;7273438;32;20122;-55
2023/08/16 20:25:19;;;;;;;5.00;3.47;;;20.00;99.90;;;;;;7274051;32;20191;-55
2023/08/16 20:29:21;;;;;;;5.05;3.33;;;20.00;99.90;;;;;;7265710;32;20155;-56
2023/08/16 20:33:22;;;;;;;5.62;3.85;;;20.00;99.90;;;;;;7244866;32;20244;-56
2023/08/16 20:37:26;;;;;;;6.25;3.45;;;20.10;99.90;;;;;;7266555;32;20100;-55
2023/08/16 20:41:28;;;;;;;5.80;4.15;;;19.90;99.90;;;;;;7271998;32;20166;-55
2023/08/16 20:45:30;;;;;;;6.68;3.95;;;19.90;99.90;;;;;;7266990;32;20202;-56
2023/08/16 20:49:32;;;;;;;6.55;4.07;;;19.80;99.90;;;;;;7275107;32;20220;-57